createdAt,value
2023-03-25T00:00:18.026Z,0.77
2023-03-25T00:02:49.277Z,0.77
2023-03-25T00:05:19.403Z,1.20
2023-03-25T00:07:52.062Z,0.90
2023-03-25T00:10:19.546Z,1.10
2023-03-25T00:12:46.470Z,0.97
2023-03-25T00:15:16.426Z,1.20
2023-03-25T00:17:44.209Z,1.17
2023-03-25T00:20:12.497Z,0.90
2023-03-25T00:22:41.994Z,0.97
2023-03-25T00:25:13.560Z,0.70
2023-03-25T00:27:40.517Z,0.80
2023-03-25T00:30:08.911Z,0.63
2023-03-25T00:32:36.471Z,0.90
2023-03-25T00:35:03.432Z,0.60
2023-03-25T00:37:30.315Z,0.60
2023-03-25T00:39:57.093Z,0.60
2023-03-25T00:42:28.805Z,0.80
2023-03-25T00:44:55.768Z,0.90
2023-03-25T00:47:23.077Z,0.87
2023-03-25T00:49:51.649Z,0.87
2023-03-25T00:52:19.463Z,0.57
2023-03-25T00:54:46.586Z,0.60
2023-03-25T00:57:13.532Z,0.83
2023-03-25T00:59:40.528Z,0.77
2023-03-25T01:02:07.414Z,0.50
2023-03-25T01:04:39.425Z,0.60
2023-03-25T01:07:08.239Z,0.70
2023-03-25T01:09:35.034Z,0.60
2023-03-25T01:12:01.846Z,0.53
2023-03-25T01:14:29.182Z,0.77
2023-03-25T01:16:56.147Z,0.70
2023-03-25T01:19:23.696Z,0.50
2023-03-25T01:21:51.380Z,0.70
2023-03-25T01:24:18.666Z,0.70
2023-03-25T01:26:46.161Z,0.87
2023-03-25T01:29:16.875Z,0.73
2023-03-25T01:31:44.307Z,0.57
2023-03-25T01:34:12.575Z,0.67
2023-03-25T01:36:46.413Z,0.73
2023-03-25T01:39:18.602Z,0.63
2023-03-25T01:41:50.718Z,0.90
2023-03-25T01:44:21.009Z,0.97
2023-03-25T01:46:53.016Z,0.80
2023-03-25T01:49:30.166Z,0.77
2023-03-25T01:52:04.636Z,0.93
2023-03-25T01:54:32.716Z,0.60
2023-03-25T01:56:59.658Z,0.70
2023-03-25T01:59:29.242Z,0.60
2023-03-25T02:02:02.233Z,0.90
2023-03-25T02:05:02.353Z,0.97
2023-03-25T02:07:35.256Z,0.90
2023-03-25T02:10:08.549Z,0.90
2023-03-25T02:12:35.619Z,0.97
2023-03-25T02:15:07.706Z,0.90
2023-03-25T02:18:21.380Z,0.87
2023-03-25T02:21:31.943Z,0.73
2023-03-25T02:25:16.113Z,1.00
2023-03-25T02:28:03.330Z,0.90
2023-03-25T02:31:04.891Z,1.10
2023-03-25T02:34:14.275Z,0.70
2023-03-25T02:37:22.829Z,0.80
2023-03-25T02:40:02.250Z,0.70
2023-03-25T02:42:56.278Z,0.37
2023-03-25T02:45:36.107Z,0.90
2023-03-25T02:48:15.928Z,0.90
2023-03-25T02:51:10.258Z,0.60
2023-03-25T02:53:40.216Z,0.80
2023-03-25T02:56:14.752Z,0.90
2023-03-25T02:58:45.102Z,1.00
2023-03-25T03:01:14.971Z,1.10
2023-03-25T03:03:42.101Z,0.90
2023-03-25T03:06:18.703Z,0.80
2023-03-25T03:08:51.368Z,1.30
2023-03-25T03:11:29.600Z,1.10
2023-03-25T03:14:39.128Z,0.70
2023-03-25T03:17:25.127Z,1.00
2023-03-25T03:20:05.772Z,1.33
2023-03-25T03:23:07.373Z,1.20
2023-03-25T03:26:14.920Z,1.50
2023-03-25T03:29:13.161Z,1.13
2023-03-25T03:32:06.019Z,1.50
2023-03-25T03:34:52.770Z,1.40
2023-03-25T03:37:37.428Z,1.23
2023-03-25T03:40:21.339Z,1.50
2023-03-25T03:43:01.076Z,1.50
2023-03-25T03:45:43.860Z,1.27
2023-03-25T03:48:20.117Z,1.00
2023-03-25T03:50:56.810Z,0.60
2023-03-25T03:53:42.924Z,0.77
2023-03-25T03:56:22.545Z,0.70
2023-03-25T03:58:58.473Z,0.73
2023-03-25T04:01:46.173Z,0.90
2023-03-25T04:04:23.867Z,0.70
2023-03-25T04:07:10.462Z,0.80
2023-03-25T04:09:54.885Z,0.70
2023-03-25T04:12:27.786Z,0.80
2023-03-25T04:14:56.778Z,0.67
2023-03-25T04:17:24.212Z,0.93
2023-03-25T04:19:53.692Z,1.10
2023-03-25T04:22:21.821Z,1.20
2023-03-25T04:24:56.113Z,1.07
2023-03-25T04:27:29.740Z,1.13
2023-03-25T04:29:57.708Z,1.27
2023-03-25T04:32:27.799Z,1.13
2023-03-25T04:34:58.478Z,1.03
2023-03-25T04:37:26.920Z,1.10
2023-03-25T04:39:56.061Z,1.10
2023-03-25T04:42:25.717Z,1.20
2023-03-25T04:44:53.289Z,0.90
2023-03-25T04:47:25.338Z,1.10
2023-03-25T04:49:52.158Z,1.40
2023-03-25T04:52:18.946Z,1.37
2023-03-25T04:54:46.357Z,1.17
2023-03-25T04:57:13.561Z,1.00
2023-03-25T04:59:40.407Z,1.60
2023-03-25T05:02:13.002Z,1.40
2023-03-25T05:04:47.411Z,1.50
2023-03-25T05:07:16.449Z,1.40
2023-03-25T05:09:43.478Z,1.30
2023-03-25T05:12:11.413Z,0.97
2023-03-25T05:14:38.547Z,1.97
2023-03-25T05:17:05.636Z,1.50
2023-03-25T05:19:35.173Z,2.33
2023-03-25T05:22:03.168Z,1.53
2023-03-25T05:24:30.414Z,1.40
2023-03-25T05:26:57.204Z,1.17
2023-03-25T05:29:24.050Z,1.10
2023-03-25T05:31:50.911Z,1.80
2023-03-25T05:34:17.889Z,0.93
2023-03-25T05:36:44.868Z,1.03
2023-03-25T05:39:12.263Z,0.90
2023-03-25T05:41:39.365Z,1.10
2023-03-25T05:44:08.658Z,1.10
2023-03-25T05:46:35.436Z,0.87
2023-03-25T05:49:02.245Z,0.80
2023-03-25T05:51:33.978Z,1.00
2023-03-25T05:54:01.776Z,1.00
2023-03-25T05:56:29.700Z,0.80
2023-03-25T05:58:57.648Z,0.90
2023-03-25T06:01:32.765Z,1.73
2023-03-25T06:04:02.404Z,1.00
2023-03-25T06:06:34.061Z,0.60
2023-03-25T06:09:02.488Z,0.87
2023-03-25T06:11:29.784Z,0.90
2023-03-25T06:13:56.837Z,0.90
2023-03-25T06:16:29.859Z,1.00
2023-03-25T06:18:59.780Z,1.00
2023-03-25T06:21:30.394Z,0.70
2023-03-25T06:23:59.598Z,0.80
2023-03-25T06:26:27.287Z,0.90
2023-03-25T06:28:54.798Z,0.90
2023-03-25T06:31:28.585Z,0.80
2023-03-25T06:33:58.714Z,0.87
2023-03-25T06:36:26.049Z,0.80
2023-03-25T06:38:54.083Z,0.80
2023-03-25T06:41:21.718Z,0.90
2023-03-25T06:43:49.189Z,1.20
2023-03-25T06:46:17.181Z,0.73
2023-03-25T06:48:44.189Z,0.80
2023-03-25T06:51:11.972Z,0.60
2023-03-25T06:53:38.909Z,0.80
2023-03-25T06:56:06.463Z,0.70
2023-03-25T06:58:35.892Z,0.73
2023-03-25T07:01:07.751Z,0.80
2023-03-25T07:03:38.255Z,0.83
2023-03-25T07:06:06.433Z,0.97
2023-03-25T07:08:34.924Z,0.83
2023-03-25T07:11:07.784Z,0.83
2023-03-25T07:13:35.360Z,1.13
2023-03-25T07:16:03.149Z,1.10
2023-03-25T07:18:30.067Z,0.90
2023-03-25T07:20:56.946Z,0.97
2023-03-25T07:23:23.768Z,0.73
2023-03-25T07:25:50.843Z,0.80
2023-03-25T07:28:18.896Z,0.83
2023-03-25T07:30:45.737Z,0.93
2023-03-25T07:33:12.589Z,1.10
2023-03-25T07:35:39.460Z,1.70
2023-03-25T07:38:06.341Z,1.10
2023-03-25T07:40:33.190Z,1.13
2023-03-25T07:43:00.055Z,0.90
2023-03-25T07:45:27.182Z,0.83
2023-03-25T07:47:54.110Z,0.70
2023-03-25T07:50:25.462Z,1.03
2023-03-25T07:52:54.124Z,1.10
2023-03-25T07:55:21.623Z,0.67
2023-03-25T07:57:48.425Z,0.77
2023-03-25T08:00:15.442Z,0.60
2023-03-25T08:02:42.412Z,0.50
2023-03-25T08:05:10.071Z,0.60
2023-03-25T08:07:36.818Z,0.73
2023-03-25T08:10:04.326Z,0.70
2023-03-25T08:12:31.223Z,0.60
2023-03-25T08:14:59.924Z,0.77
2023-03-25T08:17:26.790Z,0.70
2023-03-25T08:19:53.683Z,0.80
2023-03-25T08:22:20.617Z,0.60
2023-03-25T08:24:47.627Z,1.00
2023-03-25T08:27:16.557Z,0.73
2023-03-25T08:29:44.828Z,1.50
2023-03-25T08:32:11.872Z,0.83
2023-03-25T08:34:41.263Z,0.97
2023-03-25T08:37:08.231Z,0.70
2023-03-25T08:39:39.676Z,0.63
2023-03-25T08:42:08.519Z,0.57
2023-03-25T08:44:35.789Z,0.60
2023-03-25T08:47:02.770Z,0.53
2023-03-25T08:49:30.110Z,0.60
2023-03-25T08:51:59.014Z,1.07
2023-03-25T08:54:27.127Z,0.80
2023-03-25T08:56:54.917Z,1.00
2023-03-25T08:59:22.095Z,0.93
2023-03-25T09:01:49.017Z,0.77
2023-03-25T09:04:16.864Z,1.10
2023-03-25T09:06:48.217Z,0.80
2023-03-25T09:09:30.732Z,1.03
2023-03-25T09:11:57.586Z,0.70
2023-03-25T09:14:24.495Z,0.63
2023-03-25T09:16:51.397Z,0.67
2023-03-25T09:19:18.219Z,0.50
2023-03-25T09:21:45.187Z,0.70
2023-03-25T09:24:12.790Z,0.80
2023-03-25T09:26:40.718Z,0.60
2023-03-25T09:29:07.686Z,0.80
2023-03-25T09:31:35.360Z,0.93
2023-03-25T09:34:02.461Z,0.70
2023-03-25T09:36:29.331Z,0.60
2023-03-25T09:38:56.183Z,0.63
2023-03-25T09:41:58.567Z,0.67
2023-03-25T09:44:46.641Z,1.03
2023-03-25T09:47:16.037Z,0.63
2023-03-25T09:49:53.528Z,1.03
2023-03-25T09:52:38.945Z,0.90
2023-03-25T09:55:14.315Z,0.60
2023-03-25T09:57:49.230Z,0.70
2023-03-25T10:00:24.894Z,1.00
2023-03-25T10:03:17.889Z,1.63
2023-03-25T10:06:13.239Z,0.70
2023-03-25T10:09:02.134Z,0.70
2023-03-25T10:12:00.148Z,1.03
2023-03-25T10:14:37.892Z,1.00
2023-03-25T10:17:28.439Z,1.20
2023-03-25T10:20:16.068Z,1.13
2023-03-25T10:23:16.779Z,1.20
2023-03-25T10:25:48.769Z,0.77
2023-03-25T10:28:28.121Z,1.00
2023-03-25T10:30:56.429Z,1.00
2023-03-25T10:33:51.549Z,1.07
2023-03-25T10:36:29.684Z,0.93
2023-03-25T10:38:56.832Z,1.30
2023-03-25T10:41:30.908Z,1.03
2023-03-25T10:43:57.766Z,1.25
2023-03-25T10:46:50.116Z,1.13
2023-03-25T10:49:22.115Z,1.20
2023-03-25T10:51:54.617Z,1.27
2023-03-25T10:54:29.020Z,1.23
2023-03-25T10:57:01.840Z,1.40
2023-03-25T10:59:45.347Z,1.10
2023-03-25T11:02:27.037Z,1.20
2023-03-25T11:05:00.161Z,1.20
2023-03-25T11:07:36.960Z,1.20
2023-03-25T11:10:14.575Z,1.10
2023-03-25T11:12:46.485Z,1.60
2023-03-25T11:15:17.271Z,1.33
2023-03-25T11:17:46.949Z,1.30
2023-03-25T11:20:25.583Z,1.08
2023-03-25T11:22:59.721Z,0.82
2023-03-25T11:25:32.820Z,1.00
2023-03-25T11:28:13.632Z,1.37
2023-03-25T11:31:40.168Z,0.90
2023-03-25T11:34:27.807Z,1.03
2023-03-25T11:36:59.269Z,1.00
2023-03-25T11:39:39.478Z,1.10
2023-03-25T11:42:42.906Z,1.07
2023-03-25T11:45:37.703Z,1.30
2023-03-25T11:48:17.823Z,1.20
2023-03-25T11:50:58.747Z,1.17
2023-03-25T11:53:28.222Z,1.30
2023-03-25T11:56:02.238Z,1.03
2023-03-25T11:58:34.108Z,1.25
2023-03-25T12:01:05.484Z,1.40
2023-03-25T12:03:35.473Z,1.07
2023-03-25T12:06:11.551Z,0.80
2023-03-25T12:08:56.595Z,1.10
2023-03-25T12:11:42.813Z,0.80
2023-03-25T12:14:23.940Z,1.00
2023-03-25T12:17:33.939Z,0.80
2023-03-25T12:20:23.448Z,1.20
2023-03-25T12:23:10.408Z,1.20
2023-03-25T12:26:07.811Z,2.30
2023-03-25T12:29:19.254Z,1.20
2023-03-25T12:32:01.432Z,1.70
2023-03-25T12:35:04.428Z,1.77
2023-03-25T12:38:04.382Z,2.22
2023-03-25T12:40:46.455Z,1.67
2023-03-25T12:44:02.024Z,1.80
2023-03-25T12:46:55.985Z,1.30
2023-03-25T12:49:41.158Z,1.50
2023-03-25T12:52:36.346Z,1.60
2023-03-25T12:55:21.009Z,1.13
2023-03-25T12:58:14.232Z,1.50
2023-03-25T13:01:09.436Z,1.00
2023-03-25T13:04:12.134Z,1.07
2023-03-25T13:07:07.141Z,0.80
2023-03-25T13:09:45.648Z,2.20
2023-03-25T13:12:29.699Z,1.45
2023-03-25T13:15:32.633Z,1.65
2023-03-25T13:18:27.291Z,1.60
2023-03-25T13:21:13.243Z,1.02
2023-03-25T13:23:43.496Z,1.15
2023-03-25T13:26:18.262Z,1.30
2023-03-25T13:28:54.218Z,1.20
2023-03-25T13:31:49.664Z,1.80
2023-03-25T13:34:40.035Z,2.28
2023-03-25T13:37:24.514Z,3.63
2023-03-25T13:40:10.971Z,2.38
2023-03-25T13:42:41.676Z,2.10
2023-03-25T13:45:18.153Z,1.80
2023-03-25T13:48:11.787Z,2.95
2023-03-25T13:50:38.943Z,1.50
2023-03-25T13:53:37.739Z,1.48
2023-03-25T13:56:07.379Z,1.17
2023-03-25T13:59:12.076Z,1.08
2023-03-25T14:02:25.441Z,1.52
2023-03-25T14:05:32.284Z,1.00
2023-03-25T14:08:41.770Z,1.23
2023-03-25T14:11:28.785Z,2.60
2023-03-25T14:14:03.470Z,2.20
2023-03-25T14:16:39.902Z,1.00
2023-03-25T14:19:20.547Z,2.28
2023-03-25T14:21:50.780Z,2.10
2023-03-25T14:24:37.179Z,2.20
2023-03-25T14:27:32.493Z,4.97
2023-03-25T14:30:08.572Z,2.83
2023-03-25T14:32:40.596Z,1.90
2023-03-25T14:35:32.740Z,2.55
2023-03-25T14:38:08.935Z,4.63
2023-03-25T14:41:02.189Z,2.10
2023-03-25T14:43:36.085Z,1.47
2023-03-25T14:46:18.143Z,1.50
2023-03-25T14:48:54.409Z,1.63
2023-03-25T14:51:27.423Z,1.40
2023-03-25T14:54:20.386Z,1.10
2023-03-25T14:57:19.138Z,1.03
2023-03-25T14:59:52.809Z,1.20
2023-03-25T15:02:32.904Z,1.30
2023-03-25T15:05:12.865Z,2.20
2023-03-25T15:07:49.884Z,1.20
2023-03-25T15:10:34.777Z,1.63
2023-03-25T15:13:28.974Z,2.47
2023-03-25T15:16:27.478Z,1.50
2023-03-25T15:18:54.344Z,1.37
2023-03-25T15:21:24.980Z,2.80
2023-03-25T15:24:09.045Z,1.50
2023-03-25T15:26:42.849Z,2.00
2023-03-25T15:29:31.641Z,1.90
2023-03-25T15:32:44.197Z,1.80
2023-03-25T15:35:51.738Z,1.33
2023-03-25T15:38:49.773Z,2.70
2023-03-25T15:42:00.412Z,2.40
2023-03-25T15:45:06.787Z,1.43
2023-03-25T15:48:12.162Z,2.37
2023-03-25T15:51:21.116Z,1.30
2023-03-25T15:54:20.427Z,2.43
2023-03-25T15:56:49.179Z,2.10
2023-03-25T15:59:48.432Z,2.27
2023-03-25T16:02:42.546Z,2.70
2023-03-25T16:05:14.100Z,1.80
2023-03-25T16:07:42.245Z,2.30
2023-03-25T16:10:27.962Z,2.43
2023-03-25T16:12:54.790Z,1.60
2023-03-25T16:15:32.097Z,4.15
2023-03-25T16:18:04.396Z,1.93
2023-03-25T16:20:35.929Z,1.50
2023-03-25T16:23:05.603Z,2.40
2023-03-25T16:25:40.900Z,2.17
2023-03-25T16:28:16.686Z,1.83
2023-03-25T16:30:51.447Z,1.10
2023-03-25T16:33:26.658Z,1.40
2023-03-25T16:36:15.079Z,1.30
2023-03-25T16:38:42.855Z,1.50
2023-03-25T16:41:16.506Z,1.20
2023-03-25T16:43:43.769Z,1.47
2023-03-25T16:46:15.062Z,2.60
2023-03-25T16:48:52.012Z,3.77
2023-03-25T16:51:29.451Z,5.23
2023-03-25T16:54:00.661Z,5.83
2023-03-25T16:56:32.022Z,3.53
2023-03-25T16:59:18.188Z,7.97
2023-03-25T17:01:55.055Z,2.40
2023-03-25T17:04:26.418Z,1.80
2023-03-25T17:07:01.435Z,2.70
2023-03-25T17:09:37.552Z,1.67
2023-03-25T17:12:11.611Z,1.90
2023-03-25T17:14:43.757Z,2.57
2023-03-25T17:17:39.081Z,2.30
2023-03-25T17:20:18.316Z,2.33
2023-03-25T17:23:08.249Z,2.70
2023-03-25T17:25:51.826Z,2.33
2023-03-25T17:28:39.690Z,2.60
2023-03-25T17:31:37.847Z,2.20
2023-03-25T17:34:13.817Z,2.87
2023-03-25T17:36:50.877Z,3.50
2023-03-25T17:39:31.044Z,2.90
2023-03-25T17:42:19.372Z,3.53
2023-03-25T17:44:46.234Z,2.90
2023-03-25T17:47:17.644Z,3.10
2023-03-25T17:49:44.906Z,2.53
2023-03-25T17:52:11.876Z,1.50
2023-03-25T17:54:38.990Z,1.40
2023-03-25T17:57:17.048Z,1.13
2023-03-25T17:59:45.446Z,1.63
2023-03-25T18:02:17.391Z,1.70
2023-03-25T18:04:44.443Z,1.97
2023-03-25T18:07:11.478Z,1.60
2023-03-25T18:09:39.372Z,1.83
2023-03-25T18:12:07.013Z,1.40
2023-03-25T18:14:35.079Z,2.07
2023-03-25T18:17:03.953Z,2.10
2023-03-25T18:19:32.266Z,1.50
2023-03-25T18:22:06.957Z,1.77
2023-03-25T18:24:37.938Z,1.50
2023-03-25T18:27:05.099Z,1.50
2023-03-25T18:29:32.240Z,1.80
2023-03-25T18:31:59.190Z,1.80
2023-03-25T18:34:26.183Z,2.13
2023-03-25T18:36:54.037Z,2.10
2023-03-25T18:39:27.495Z,2.47
2023-03-25T18:41:54.408Z,3.00
2023-03-25T18:44:21.328Z,2.33
2023-03-25T18:46:48.111Z,1.40
2023-03-25T18:49:19.403Z,1.73
2023-03-25T18:51:49.782Z,1.17
2023-03-25T18:54:17.285Z,1.03
2023-03-25T18:56:45.023Z,1.50
2023-03-25T18:59:21.100Z,1.20
2023-03-25T19:01:48.007Z,1.17
2023-03-25T19:04:14.976Z,3.90
2023-03-25T19:06:42.930Z,2.77
2023-03-25T19:09:18.211Z,1.47
2023-03-25T19:11:45.223Z,2.17
2023-03-25T19:14:12.002Z,1.90
2023-03-25T19:16:38.886Z,1.33
2023-03-25T19:19:05.849Z,1.10
2023-03-25T19:21:33.064Z,1.40
2023-03-25T19:23:59.983Z,1.30
2023-03-25T19:26:27.145Z,1.30
2023-03-25T19:28:53.998Z,1.17
2023-03-25T19:31:20.892Z,1.70
2023-03-25T19:33:47.706Z,1.13
2023-03-25T19:36:18.915Z,2.13
2023-03-25T19:38:46.127Z,1.13
2023-03-25T19:41:16.048Z,1.40
2023-03-25T19:43:43.148Z,1.17
2023-03-25T19:46:10.729Z,1.20
2023-03-25T19:48:37.673Z,2.50
2023-03-25T19:51:04.890Z,1.40
2023-03-25T19:53:31.891Z,1.60
2023-03-25T19:56:04.348Z,1.43
2023-03-25T19:58:31.760Z,1.00
2023-03-25T20:00:58.746Z,1.70
2023-03-25T20:03:26.575Z,1.30
2023-03-25T20:05:58.021Z,1.03
2023-03-25T20:08:25.914Z,1.77
2023-03-25T20:10:53.585Z,2.80
2023-03-25T20:13:20.881Z,1.50
2023-03-25T20:15:49.896Z,1.83
2023-03-25T20:18:16.994Z,2.10
2023-03-25T20:20:44.457Z,2.80
2023-03-25T20:23:11.664Z,2.10
2023-03-25T20:25:38.540Z,1.43
2023-03-25T20:28:06.300Z,3.30
2023-03-25T20:30:35.446Z,12.97
2023-03-25T20:33:05.907Z,4.37
2023-03-25T20:35:35.338Z,2.97
2023-03-25T20:38:02.262Z,2.50
2023-03-25T20:40:41.341Z,1.77
2023-03-25T20:43:09.694Z,1.63
2023-03-25T20:45:36.644Z,2.03
2023-03-25T20:48:04.749Z,1.90
2023-03-25T20:50:32.448Z,2.70
2023-03-25T20:52:59.361Z,2.67
2023-03-25T20:55:26.219Z,2.70
2023-03-25T20:57:53.136Z,2.20
2023-03-25T21:00:19.955Z,3.00
2023-03-25T21:02:47.778Z,2.60
2023-03-25T21:05:14.790Z,3.00
2023-03-25T21:07:41.573Z,3.50
2023-03-25T21:10:09.641Z,2.93
2023-03-25T21:12:43.694Z,3.70
2023-03-25T21:15:13.231Z,2.80
2023-03-25T21:17:40.701Z,2.23
2023-03-25T21:20:09.125Z,2.80
2023-03-25T21:22:43.705Z,2.90
2023-03-25T21:25:14.793Z,2.90
2023-03-25T21:27:45.043Z,3.63
2023-03-25T21:30:12.999Z,3.10
2023-03-25T21:32:41.167Z,3.17
2023-03-25T21:35:09.538Z,3.10
2023-03-25T21:37:38.853Z,3.37
2023-03-25T21:40:10.811Z,3.00
2023-03-25T21:42:42.463Z,3.13
2023-03-25T21:45:16.051Z,2.83
2023-03-25T21:47:47.462Z,2.40
2023-03-25T21:50:16.381Z,2.67
2023-03-25T21:52:46.456Z,2.57
2023-03-25T21:55:15.765Z,3.53
2023-03-25T21:57:44.828Z,2.87
2023-03-25T22:00:16.787Z,2.80
2023-03-25T22:02:46.585Z,2.87
2023-03-25T22:05:15.492Z,3.00
2023-03-25T22:07:42.723Z,2.50
2023-03-25T22:10:10.939Z,3.07
2023-03-25T22:12:38.596Z,3.47
2023-03-25T22:15:06.344Z,2.83
2023-03-25T22:17:33.234Z,3.77
2023-03-25T22:20:00.389Z,3.90
2023-03-25T22:22:27.535Z,3.03
2023-03-25T22:24:54.317Z,3.33
2023-03-25T22:27:21.424Z,2.77
2023-03-25T22:29:48.197Z,2.87
2023-03-25T22:32:14.991Z,2.20
2023-03-25T22:34:42.155Z,3.90
2023-03-25T22:37:09.083Z,2.93
2023-03-25T22:39:37.855Z,3.30
2023-03-25T22:42:04.876Z,2.70
2023-03-25T22:44:31.701Z,3.60
2023-03-25T22:46:58.522Z,3.63
2023-03-25T22:49:25.921Z,3.73
2023-03-25T22:51:54.123Z,2.70
2023-03-25T22:54:21.499Z,2.80
2023-03-25T22:56:48.481Z,2.93
2023-03-25T22:59:15.642Z,3.23
2023-03-25T23:01:43.271Z,2.90
2023-03-25T23:04:10.315Z,3.70
2023-03-25T23:06:38.108Z,4.00
2023-03-25T23:09:08.513Z,2.43
2023-03-25T23:11:36.828Z,3.13
2023-03-25T23:14:13.114Z,3.00
2023-03-25T23:16:41.701Z,2.97
2023-03-25T23:19:10.025Z,2.93
2023-03-25T23:21:38.179Z,2.73
2023-03-25T23:24:05.600Z,2.23
2023-03-25T23:26:40.081Z,2.20
2023-03-25T23:29:11.623Z,2.57
2023-03-25T23:31:42.179Z,1.90
2023-03-25T23:34:13.559Z,2.07
2023-03-25T23:36:40.738Z,2.83
2023-03-25T23:39:12.238Z,2.70
2023-03-25T23:41:39.562Z,2.70
2023-03-25T23:44:07.180Z,2.97
2023-03-25T23:46:35.172Z,2.27
2023-03-25T23:49:02.446Z,2.43
2023-03-25T23:51:39.263Z,2.77
2023-03-25T23:54:09.908Z,2.40
2023-03-25T23:56:37.701Z,2.50
2023-03-25T23:59:06.476Z,2.63
